Guriat, Saudi Arabia
Current Conditions -  °F | °C
As of 12:00 PM on Thursday 23 Oct 2014 (Local Time) from OEGT Reporting Station
Clear Clear  
Wind Chill: 75°   Ceiling: Unl
Heat Index: 75°   Visibility: 6mi
Dew Point: 37°   Wind: 7mph
Humidity: 25%   Direction: 280°W
Pressure: 30"   Gusts: NA
Location:  31.41°N, 37.28°E
Report Text: OEGT 230900Z 28006KT CAVOK 24/03 Q1016 NOSIG
Loading
Personal Weather Stations






























Interactive Weather Map
Tropical Storm Tracking
New forecast layout! Learn more

10-Day Weather Forecast

Advertisements
Track Severe Weather on mobile